Time;durP1;ratioP1;P1;durP2;ratioP2;P2;SDS_P1;SDS_P2;PMS_P1;PMS_P2;Temp;Humidity;BMP_temperature;BMP_pressure;BME280_temperature;BME280_humidity;BME280_pressure;Samples;Min_cycle;Max_cycle;Signal;HPM_P1;HPM_P2
2022/04/23 00:00:50;;;;;;;101.63;15.50;;;5.60;99.90;;;;;;4917200;29;20970;-84
2022/04/23 00:03:18;;;;;;;96.20;16.05;;;5.60;99.90;;;;;;4921063;29;20397;-84
2022/04/23 00:05:46;;;;;;;4.43;3.40;;;5.60;99.90;;;;;;4920174;29;20409;-85
2022/04/23 00:08:14;;;;;;;191.87;26.13;;;5.60;99.90;;;;;;4921173;29;20402;-84
2022/04/23 00:10:42;;;;;;;255.13;44.60;;;5.70;99.90;;;;;;4938166;29;20390;-85
2022/04/23 00:13:10;;;;;;;173.20;24.50;;;5.60;99.90;;;;;;4915884;29;20415;-84
2022/04/23 00:15:38;;;;;;;97.57;16.58;;;5.60;99.90;;;;;;4902352;29;20431;-84
2022/04/23 00:18:08;;;;;;;49.30;8.90;;;5.60;99.90;;;;;;4931079;29;20401;-86
2022/04/23 00:20:37;;;;;;;24.90;4.37;;;5.60;99.90;;;;;;4920639;29;20907;-85
2022/04/23 00:23:06;;;;;;;108.45;19.13;;;5.60;99.90;;;;;;4935490;29;20405;-85
2022/04/23 00:25:38;;;;;;;72.75;8.13;;;5.50;99.90;;;;;;4912709;29;20915;-85
2022/04/23 00:28:06;;;;;;;337.05;54.75;;;5.50;99.90;;;;;;4926300;29;20396;-85
2022/04/23 00:30:34;;;;;;;22.75;5.38;;;5.50;99.90;;;;;;4916264;29;20948;-84
2022/04/23 00:33:03;;;;;;;200.32;23.70;;;5.50;99.90;;;;;;4923521;29;20932;-85
2022/04/23 00:35:31;;;;;;;28.38;6.18;;;5.40;99.90;;;;;;4936663;29;20405;-85
2022/04/23 00:37:59;;;;;;;280.75;49.17;;;5.40;99.90;;;;;;4920085;29;20402;-85
2022/04/23 00:40:27;;;;;;;4.60;3.00;;;5.40;99.90;;;;;;4920235;29;20398;-85
2022/04/23 00:42:57;;;;;;;71.82;8.30;;;5.40;99.90;;;;;;4919914;29;20397;-83
2022/04/23 00:45:27;;;;;;;85.28;13.18;;;5.30;99.90;;;;;;4920197;29;20414;-84
2022/04/23 00:47:55;;;;;;;173.48;22.10;;;5.30;99.90;;;;;;4936319;29;21428;-85
2022/04/23 00:50:23;;;;;;;4.93;3.08;;;5.20;99.90;;;;;;4911298;29;20398;-85
2022/04/23 00:52:54;;;;;;;27.83;5.40;;;5.30;99.90;;;;;;4951279;29;20428;-85
2022/04/23 00:55:23;;;;;;;170.48;25.98;;;5.20;99.90;;;;;;4938790;29;20771;-85
2022/04/23 00:57:51;;;;;;;74.45;11.43;;;5.20;99.90;;;;;;4956192;29;20455;-85
2022/04/23 01:00:19;;;;;;;117.38;17.90;;;5.10;99.90;;;;;;4921748;29;20436;-86
2022/04/23 01:02:46;;;;;;;216.32;30.63;;;5.10;99.90;;;;;;4937030;29;20398;-85
2022/04/23 01:05:14;;;;;;;104.70;12.93;;;5.10;99.90;;;;;;4920383;29;20489;-86
2022/04/23 01:07:45;;;;;;;117.43;24.88;;;5.00;99.90;;;;;;4920050;29;20900;-84
2022/04/23 01:10:13;;;;;;;215.65;29.73;;;5.00;99.90;;;;;;4937121;29;20480;-86
2022/04/23 01:12:42;;;;;;;125.47;17.27;;;5.10;99.90;;;;;;4904343;29;20393;-85
2022/04/23 01:15:11;;;;;;;79.60;11.63;;;5.00;99.90;;;;;;4936903;29;20406;-84
2022/04/23 01:17:40;;;;;;;82.03;12.47;;;4.90;99.90;;;;;;4936916;29;20393;-84
2022/04/23 01:20:09;;;;;;;50.80;8.95;;;5.00;99.90;;;;;;4920082;29;20458;-84
2022/04/23 01:22:38;;;;;;;313.73;46.70;;;4.90;99.90;;;;;;4919937;29;20397;-85
2022/04/23 01:25:07;;;;;;;210.73;27.27;;;4.90;99.90;;;;;;4919878;29;20397;-84
2022/04/23 01:27:35;;;;;;;26.63;5.25;;;4.80;99.90;;;;;;4919744;29;20397;-85
2022/04/23 01:30:04;;;;;;;124.55;19.10;;;4.80;99.90;;;;;;4936683;29;20422;-84
2022/04/23 01:32:32;;;;;;;139.55;31.58;;;4.80;99.90;;;;;;4919516;29;20940;-83
2022/04/23 01:35:01;;;;;;;132.98;27.40;;;4.80;99.90;;;;;;4936467;29;20401;-84
2022/04/23 01:37:29;;;;;;;52.15;9.35;;;4.80;99.90;;;;;;4919592;29;20436;-84
2022/04/23 01:39:57;;;;;;;69.50;10.85;;;4.70;99.90;;;;;;4885261;29;20423;-84
2022/04/23 01:42:25;;;;;;;84.73;10.67;;;4.70;99.90;;;;;;4904986;29;20434;-85
2022/04/23 01:44:54;;;;;;;67.00;10.00;;;4.80;99.90;;;;;;4918026;29;20404;-85
2022/04/23 01:47:21;;;;;;;399.50;73.20;;;4.70;99.90;;;;;;4913164;29;20463;-84
2022/04/23 01:49:49;;;;;;;26.90;5.30;;;4.70;99.90;;;;;;4927018;29;20398;-84
2022/04/23 01:52:16;;;;;;;384.15;66.63;;;4.70;99.90;;;;;;4936243;29;20405;-84
2022/04/23 01:54:44;;;;;;;115.23;25.83;;;4.70;99.90;;;;;;4935583;29;20406;-86
2022/04/23 01:57:12;;;;;;;246.40;52.78;;;4.70;99.90;;;;;;4936197;29;20436;-85
2022/04/23 01:59:39;;;;;;;129.27;26.38;;;4.80;99.90;;;;;;4918949;29;20769;-84
2022/04/23 02:02:07;;;;;;;190.98;26.08;;;4.80;99.90;;;;;;4948153;29;20905;-84
2022/04/23 02:04:36;;;;;;;50.67;9.07;;;4.80;99.90;;;;;;4955043;29;20431;-84
2022/04/23 02:07:04;;;;;;;42.13;6.97;;;4.90;99.90;;;;;;4920836;29;20413;-84
2022/04/23 02:09:33;;;;;;;6.83;4.47;;;4.90;99.90;;;;;;4918419;29;20409;-86
2022/04/23 02:12:00;;;;;;;232.60;47.33;;;4.90;99.90;;;;;;4892097;29;20406;-85
2022/04/23 02:14:29;;;;;;;129.50;20.70;;;4.90;99.90;;;;;;4927264;29;20404;-84
2022/04/23 02:16:56;;;;;;;56.03;10.73;;;4.90;99.90;;;;;;4918172;29;20501;-86
2022/04/23 02:19:24;;;;;;;75.13;15.63;;;5.00;99.90;;;;;;4918358;29;20818;-85
2022/04/23 02:21:52;;;;;;;82.32;20.85;;;5.00;99.90;;;;;;4918381;29;20480;-86
2022/04/23 02:24:19;;;;;;;316.67;57.43;;;5.00;99.90;;;;;;4918482;29;20404;-84
2022/04/23 02:26:47;;;;;;;64.95;9.52;;;5.10;99.90;;;;;;4918200;29;20892;-84
2022/04/23 02:29:15;;;;;;;203.88;37.20;;;5.10;99.90;;;;;;4935482;29;20398;-84
2022/04/23 02:31:42;;;;;;;130.70;24.38;;;5.10;99.90;;;;;;4918542;29;20398;-86
2022/04/23 02:34:10;;;;;;;163.57;27.27;;;5.10;99.90;;;;;;4937677;29;20392;-86
2022/04/23 02:36:38;;;;;;;170.10;29.30;;;5.10;99.90;;;;;;4954112;29;20435;-85
2022/04/23 02:39:05;;;;;;;297.73;60.47;;;5.20;99.90;;;;;;4936827;29;20869;-86
2022/04/23 02:41:33;;;;;;;225.48;43.50;;;5.20;99.90;;;;;;4937380;29;20733;-85
2022/04/23 02:44:03;;;;;;;107.43;16.00;;;5.20;99.90;;;;;;4936963;29;20435;-84
2022/04/23 02:46:30;;;;;;;16.65;6.65;;;5.20;99.90;;;;;;4936887;29;20495;-84
2022/04/23 02:48:58;;;;;;;170.70;24.15;;;5.30;99.90;;;;;;4953743;29;20396;-85
2022/04/23 02:51:26;;;;;;;166.35;38.90;;;5.20;99.90;;;;;;4953951;29;20871;-85
2022/04/23 02:53:54;;;;;;;129.38;32.20;;;5.30;99.90;;;;;;4953715;28;20455;-85
2022/04/23 02:56:21;;;;;;;25.40;7.90;;;5.30;99.90;;;;;;4953911;29;20442;-85
2022/04/23 02:58:49;;;;;;;236.23;36.50;;;5.40;99.90;;;;;;4918498;29;20431;-85
2022/04/23 03:01:16;;;;;;;98.63;22.70;;;5.30;99.90;;;;;;4916653;29;20409;-86
2022/04/23 03:03:46;;;;;;;28.90;8.60;;;5.30;99.90;;;;;;4916468;29;20396;-86
2022/04/23 03:06:17;;;;;;;231.30;39.28;;;5.30;99.90;;;;;;4934743;29;20445;-86
2022/04/23 03:08:46;;;;;;;332.30;62.03;;;5.30;99.90;;;;;;4919316;29;20390;-87
2022/04/23 03:11:14;;;;;;;66.00;14.20;;;5.40;99.90;;;;;;4936323;29;20455;-86
2022/04/23 03:13:43;;;;;;;211.00;40.38;;;5.40;99.90;;;;;;4953634;29;20396;-87
2022/04/23 03:16:10;;;;;;;99.78;19.77;;;5.40;99.90;;;;;;4921065;29;20487;-87
2022/04/23 03:18:39;;;;;;;72.15;13.75;;;5.40;99.90;;;;;;4915401;29;20841;-84
2022/04/23 03:21:07;;;;;;;544.58;109.22;;;5.40;99.90;;;;;;4917446;29;20461;-84
2022/04/23 03:23:34;;;;;;;11.48;7.20;;;5.40;99.90;;;;;;4934751;29;20420;-86
2022/04/23 03:26:02;;;;;;;273.42;51.72;;;5.50;99.90;;;;;;4934600;29;20492;-86
2022/04/23 03:28:31;;;;;;;10.70;6.63;;;5.50;99.90;;;;;;4934090;29;20430;-87
2022/04/23 03:30:59;;;;;;;168.93;39.92;;;5.50;99.90;;;;;;4934629;29;20641;-85
2022/04/23 03:33:27;;;;;;;41.65;10.73;;;5.50;99.90;;;;;;4934700;29;20488;-86
2022/04/23 03:35:55;;;;;;;165.43;34.40;;;5.50;99.90;;;;;;4944742;29;20400;-86
2022/04/23 03:38:22;;;;;;;65.00;15.55;;;5.60;99.90;;;;;;4946442;29;20457;-86
2022/04/23 03:40:53;;;;;;;215.68;46.85;;;5.60;99.90;;;;;;4917536;29;20837;-86
2022/04/23 03:43:22;;;;;;;141.00;21.75;;;5.50;99.90;;;;;;4934574;29;20498;-85
2022/04/23 03:45:49;;;;;;;33.20;9.20;;;5.50;99.90;;;;;;4917272;29;20814;-85
2022/04/23 03:48:17;;;;;;;194.95;35.70;;;5.50;99.90;;;;;;4917311;29;20896;-83
2022/04/23 03:50:47;;;;;;;92.90;21.90;;;5.50;99.90;;;;;;4934564;29;20543;-86
2022/04/23 03:53:15;;;;;;;145.48;24.13;;;5.60;99.90;;;;;;4917506;29;20444;-87
2022/04/23 03:55:42;;;;;;;31.70;9.65;;;5.50;99.90;;;;;;4934178;29;20488;-85
2022/04/23 03:58:10;;;;;;;104.15;23.27;;;5.60;99.90;;;;;;4917259;29;20412;-85
2022/04/23 04:00:38;;;;;;;446.38;85.95;;;5.60;99.90;;;;;;4934510;29;20398;-86
2022/04/23 04:03:06;;;;;;;190.25;38.60;;;5.60;99.90;;;;;;4934255;29;20430;-86
2022/04/23 04:05:34;;;;;;;228.32;44.13;;;5.60;99.90;;;;;;4917242;29;20485;-85
2022/04/23 04:08:02;;;;;;;330.95;60.85;;;5.60;99.90;;;;;;4934158;29;20414;-85
2022/04/23 04:10:30;;;;;;;69.75;15.48;;;5.60;99.90;;;;;;4934159;29;20394;-85
2022/04/23 04:12:57;;;;;;;88.43;16.75;;;5.60;99.90;;;;;;4934235;29;20457;-85
2022/04/23 04:15:25;;;;;;;234.80;42.30;;;5.60;99.90;;;;;;4934307;29;20488;-85
2022/04/23 04:17:54;;;;;;;152.45;27.02;;;5.60;99.90;;;;;;4934754;29;20782;-85
2022/04/23 04:20:22;;;;;;;125.95;27.10;;;5.60;99.90;;;;;;4917279;29;20876;-85
2022/04/23 04:22:50;;;;;;;200.75;36.47;;;5.60;99.90;;;;;;4934229;29;20748;-85
2022/04/23 04:25:18;;;;;;;212.32;39.90;;;5.60;99.90;;;;;;4934064;29;20394;-86
2022/04/23 04:27:46;;;;;;;275.53;60.00;;;5.70;99.90;;;;;;4932930;29;20502;-84
2022/04/23 04:30:14;;;;;;;670.13;126.90;;;5.70;99.90;;;;;;4934229;29;20398;-86
2022/04/23 04:32:49;;;;;;;84.63;15.65;;;5.70;99.90;;;;;;4916902;29;20406;-85
2022/04/23 04:35:17;;;;;;;254.23;41.43;;;5.70;99.90;;;;;;4916848;29;20406;-85
2022/04/23 04:37:45;;;;;;;325.48;66.53;;;5.80;99.90;;;;;;4934106;29;20416;-85
2022/04/23 04:40:12;;;;;;;254.83;41.73;;;5.80;99.90;;;;;;4939014;29;20495;-86
2022/04/23 04:42:40;;;;;;;175.52;32.35;;;5.80;99.90;;;;;;4939290;29;20404;-85
2022/04/23 04:45:08;;;;;;;24.02;9.57;;;5.90;99.90;;;;;;4956407;29;20763;-86
2022/04/23 04:47:36;;;;;;;275.25;54.47;;;5.90;99.90;;;;;;4918620;29;20418;-85
2022/04/23 04:50:04;;;;;;;486.27;83.25;;;6.00;99.90;;;;;;4934389;29;20397;-86
2022/04/23 04:52:32;;;;;;;14.40;8.65;;;6.00;99.90;;;;;;4920189;29;20808;-85
2022/04/23 04:54:59;;;;;;;150.75;31.30;;;6.10;99.90;;;;;;4916865;29;20564;-85
2022/04/23 04:57:28;;;;;;;130.73;24.15;;;6.10;99.90;;;;;;4916984;29;20413;-85
2022/04/23 04:59:55;;;;;;;307.52;36.72;;;6.20;99.90;;;;;;4916942;29;20465;-85
2022/04/23 05:02:23;;;;;;;10.85;7.93;;;6.30;99.90;;;;;;4932596;29;20404;-86
2022/04/23 05:04:51;;;;;;;312.33;79.85;;;6.40;99.90;;;;;;4918337;29;20447;-86
2022/04/23 05:07:19;;;;;;;12.05;7.43;;;6.50;99.90;;;;;;4923807;29;20417;-87
2022/04/23 05:09:47;;;;;;;597.17;94.80;;;6.80;99.90;;;;;;4935899;29;20437;-83
2022/04/23 05:12:15;;;;;;;100.43;16.00;;;6.80;99.90;;;;;;4935749;29;20402;-85
2022/04/23 05:14:43;;;;;;;184.70;42.20;;;6.90;99.90;;;;;;4935095;29;20394;-86
2022/04/23 05:17:16;;;;;;;552.70;115.63;;;7.00;99.90;;;;;;4935525;29;20401;-86
2022/04/23 05:19:44;;;;;;;66.40;13.25;;;7.10;99.90;;;;;;4919109;29;20901;-86
2022/04/23 05:22:12;;;;;;;259.02;34.70;;;7.20;99.90;;;;;;4935347;29;20421;-85
2022/04/23 05:24:39;;;;;;;133.07;43.33;;;7.40;99.90;;;;;;4934943;29;20425;-84
2022/04/23 05:27:08;;;;;;;344.83;59.20;;;7.40;99.90;;;;;;4933385;29;20904;-86
2022/04/23 05:29:36;;;;;;;428.65;58.15;;;7.60;99.90;;;;;;4917137;29;20411;-85
2022/04/23 05:32:04;;;;;;;531.13;93.28;;;7.60;99.90;;;;;;4917635;29;20787;-86
2022/04/23 05:34:34;;;;;;;551.20;96.90;;;7.60;99.90;;;;;;4917921;29;20897;-84
2022/04/23 05:37:03;;;;;;;267.92;43.15;;;7.70;99.90;;;;;;4916506;29;20914;-85
2022/04/23 05:39:31;;;;;;;289.85;51.33;;;7.70;99.90;;;;;;4917639;29;20430;-84
2022/04/23 05:41:58;;;;;;;503.17;83.20;;;7.90;99.90;;;;;;4917401;29;20403;-85
2022/04/23 05:44:26;;;;;;;31.37;9.77;;;7.90;99.90;;;;;;4907752;29;20916;-85
2022/04/23 05:46:54;;;;;;;130.35;32.38;;;7.90;99.90;;;;;;4899785;29;20413;-85
2022/04/23 05:49:21;;;;;;;126.80;18.02;;;8.00;99.90;;;;;;4914752;29;20949;-84
2022/04/23 05:52:10;;;;;;;242.30;33.75;;;8.00;99.90;;;;;;4915938;29;20396;-82
2022/04/23 05:54:38;;;;;;;589.40;102.00;;;8.20;99.90;;;;;;4931561;29;20400;-85
2022/04/23 05:57:07;;;;;;;549.55;62.00;;;8.40;99.90;;;;;;4911460;29;20405;-86
2022/04/23 05:59:34;;;;;;;421.13;64.03;;;8.60;99.90;;;;;;4917343;29;20841;-86
2022/04/23 06:02:03;;;;;;;656.90;89.85;;;8.70;99.90;;;;;;4905212;29;20405;-86
2022/04/23 06:04:38;;;;;;;696.25;85.22;;;8.60;99.90;;;;;;4910436;29;20408;-86
2022/04/23 06:07:06;;;;;;;483.90;79.88;;;8.70;99.90;;;;;;4915988;29;20415;-87
2022/04/23 06:09:34;;;;;;;438.85;80.38;;;8.80;99.90;;;;;;4915731;29;20404;-86
2022/04/23 06:12:02;;;;;;;442.20;86.35;;;9.00;99.90;;;;;;4928358;29;20426;-85
2022/04/23 06:14:29;;;;;;;404.40;48.22;;;8.90;99.90;;;;;;4923687;29;20413;-82
2022/04/23 06:16:57;;;;;;;492.25;96.05;;;8.90;99.90;;;;;;4926148;29;20399;-87
2022/04/23 06:19:25;;;;;;;493.63;61.65;;;9.00;99.90;;;;;;4908822;29;20400;-85
2022/04/23 06:21:52;;;;;;;348.27;78.33;;;9.10;99.90;;;;;;4923172;29;20471;-84
2022/04/23 06:24:21;;;;;;;254.77;38.47;;;9.10;99.90;;;;;;4920602;29;20428;-82
2022/04/23 06:26:49;;;;;;;202.50;36.10;;;9.20;99.90;;;;;;4923456;29;20419;-83
2022/04/23 06:29:17;;;;;;;464.27;87.32;;;9.40;99.90;;;;;;4924001;29;21040;-89
2022/04/23 06:31:44;;;;;;;141.30;29.48;;;9.30;99.90;;;;;;4937662;29;20459;-84
2022/04/23 06:34:12;;;;;;;240.80;50.40;;;9.40;99.90;;;;;;4924120;29;20497;-86
2022/04/23 06:36:40;;;;;;;943.40;104.25;;;9.50;99.90;;;;;;4923760;29;20402;-84
2022/04/23 06:39:08;;;;;;;257.40;41.80;;;9.60;99.90;;;;;;4923022;29;20411;-81
2022/04/23 06:41:36;;;;;;;389.30;74.77;;;9.70;99.90;;;;;;4921151;29;20396;-86
2022/04/23 06:44:06;;;;;;;52.13;9.40;;;9.70;99.90;;;;;;4918446;29;20392;-86
2022/04/23 06:46:33;;;;;;;738.83;74.70;;;9.70;99.90;;;;;;4914871;29;20395;-85
2022/04/23 06:49:05;;;;;;;749.28;91.18;;;10.00;99.90;;;;;;4896696;29;20449;-86
2022/04/23 06:51:37;;;;;;;257.40;61.40;;;10.10;99.90;;;;;;4902938;29;20422;-86
2022/04/23 06:54:04;;;;;;;79.65;23.55;;;10.20;99.90;;;;;;4906800;29;20467;-86
2022/04/23 06:56:32;;;;;;;251.37;63.17;;;10.20;99.90;;;;;;4899649;29;20396;-86
2022/04/23 06:59:00;;;;;;;602.47;79.90;;;10.20;99.90;;;;;;4933827;29;20885;-86
2022/04/23 07:01:28;;;;;;;264.97;61.70;;;10.20;99.90;;;;;;4917963;29;20394;-86
2022/04/23 07:03:55;;;;;;;620.72;77.10;;;10.30;99.90;;;;;;4934970;29;20453;-85
2022/04/23 07:06:24;;;;;;;537.15;97.28;;;10.50;99.90;;;;;;4920058;29;20921;-85
2022/04/23 07:08:51;;;;;;;124.28;28.40;;;10.50;99.90;;;;;;4910269;29;20925;-87
2022/04/23 07:11:19;;;;;;;511.73;44.95;;;10.60;99.90;;;;;;4901789;29;20932;-86
2022/04/23 07:13:47;;;;;;;267.13;41.90;;;10.60;99.90;;;;;;4908921;29;20416;-85
2022/04/23 07:16:17;;;;;;;682.00;96.60;;;10.60;99.90;;;;;;4917541;29;21060;-86
2022/04/23 07:18:44;;;;;;;544.15;74.57;;;10.70;99.90;;;;;;4935116;29;20802;-86
2022/04/23 07:21:12;;;;;;;756.42;91.18;;;10.80;99.90;;;;;;4936195;29;20410;-88
2022/04/23 07:26:27;;;;;;;412.55;32.08;;;10.80;99.90;;;;;;4919106;29;20404;-87
2022/04/23 07:28:56;;;;;;;567.10;58.93;;;10.90;99.90;;;;;;4918403;29;20517;-86
2022/04/23 07:31:24;;;;;;;321.55;64.95;;;11.00;99.90;;;;;;4934918;29;20426;-85
2022/04/23 07:39:24;;;;;;;399.45;51.05;;;11.30;99.90;;;;;;4939815;29;20398;-89
2022/04/23 07:41:54;;;;;;;519.90;86.20;;;11.40;99.90;;;;;;4917921;29;20445;-86
2022/04/23 07:44:23;;;;;;;267.43;50.53;;;11.50;99.90;;;;;;4908664;29;20419;-85
2022/04/23 07:46:51;;;;;;;601.47;85.53;;;11.40;99.90;;;;;;4917539;29;20403;-86
2022/04/23 07:49:20;;;;;;;543.08;88.75;;;11.30;99.90;;;;;;4933695;29;20437;-87
2022/04/23 07:51:47;;;;;;;545.08;56.83;;;11.30;99.90;;;;;;4934486;29;20401;-86
2022/04/23 07:54:16;;;;;;;150.27;28.70;;;11.40;99.90;;;;;;4913788;29;20435;-87
2022/04/23 07:56:44;;;;;;;475.33;60.88;;;11.50;99.90;;;;;;4915516;29;20994;-86
2022/04/23 07:59:11;;;;;;;469.33;67.28;;;11.70;99.90;;;;;;4914155;29;20443;-87
2022/04/23 08:01:39;;;;;;;333.95;59.50;;;11.80;99.90;;;;;;4915638;29;20403;-86
2022/04/23 08:04:08;;;;;;;153.73;25.90;;;11.80;99.90;;;;;;4914124;29;20408;-86
2022/04/23 08:06:35;;;;;;;299.65;55.28;;;11.70;99.90;;;;;;4915420;29;20886;-85
2022/04/23 08:09:04;;;;;;;220.93;48.47;;;11.80;99.90;;;;;;4898826;29;20415;-87
2022/04/23 08:11:32;;;;;;;374.92;53.47;;;11.90;99.90;;;;;;4913945;29;20414;-86
2022/04/23 08:14:00;;;;;;;890.17;97.15;;;11.90;99.90;;;;;;4917168;29;20400;-85
2022/04/23 08:16:28;;;;;;;352.58;45.35;;;12.20;99.90;;;;;;4919511;29;20399;-86
2022/04/23 08:18:57;;;;;;;415.75;92.45;;;12.10;99.90;;;;;;4917641;29;20827;-86
2022/04/23 08:21:25;;;;;;;366.07;39.60;;;12.20;99.90;;;;;;4917484;29;20436;-86
2022/04/23 08:23:52;;;;;;;413.20;45.88;;;12.10;99.90;;;;;;4918966;29;20410;-86
2022/04/23 08:26:20;;;;;;;840.47;87.30;;;12.00;99.90;;;;;;4918914;29;20399;-85
2022/04/23 08:31:34;;;;;;;652.00;68.60;;;12.30;99.90;;;;;;4917420;29;20403;-86
2022/04/23 08:34:02;;;;;;;360.17;67.97;;;12.30;99.90;;;;;;4917520;29;20428;-87
2022/04/23 08:36:36;;;;;;;351.27;45.25;;;12.30;99.90;;;;;;4917693;29;20395;-85
2022/04/23 08:39:06;;;;;;;494.50;99.10;;;12.30;99.90;;;;;;4909319;29;20459;-85
2022/04/23 08:41:35;;;;;;;693.30;104.35;;;12.20;99.90;;;;;;4917241;29;20415;-86
2022/04/23 08:44:08;;;;;;;753.67;101.05;;;12.20;99.90;;;;;;4915496;29;20503;-85
2022/04/23 08:46:40;;;;;;;449.60;69.83;;;12.10;99.90;;;;;;4901376;29;20809;-84
2022/04/23 08:49:16;;;;;;;403.42;60.45;;;12.10;99.90;;;;;;4914250;29;20409;-85
2022/04/23 08:51:58;;;;;;;197.38;29.45;;;12.30;99.90;;;;;;4900087;29;20469;-86
2022/04/23 08:54:26;;;;;;;344.60;67.65;;;12.30;99.90;;;;;;4898071;29;20478;-85
2022/04/23 08:56:54;;;;;;;532.47;67.33;;;12.30;99.90;;;;;;4900846;29;20401;-85
2022/04/23 08:59:22;;;;;;;443.20;64.13;;;12.40;99.90;;;;;;4918205;29;20463;-85
2022/04/23 09:01:57;;;;;;;651.20;76.43;;;12.60;99.90;;;;;;4916803;29;20946;-86
2022/04/23 09:04:25;;;;;;;330.60;56.42;;;12.80;99.90;;;;;;4918192;29;20425;-85
2022/04/23 09:07:00;;;;;;;298.17;32.03;;;12.90;99.90;;;;;;4906145;29;20751;-86
2022/04/23 09:09:27;;;;;;;459.55;56.90;;;13.00;99.90;;;;;;4916710;29;20918;-85
2022/04/23 09:11:59;;;;;;;822.78;133.85;;;13.30;99.90;;;;;;4907182;29;20457;-85
2022/04/23 09:14:28;;;;;;;623.65;88.20;;;13.50;99.90;;;;;;4938438;29;20885;-85
2022/04/23 09:25:35;;;;;;;1067.70;98.00;;;13.00;99.90;;;;;;4915215;29;20403;-86
2022/04/23 09:28:20;;;;;;;592.90;55.10;;;13.30;99.90;;;;;;4916215;29;20423;-86
2022/04/23 09:30:50;;;;;;;558.73;51.20;;;13.50;99.90;;;;;;4916359;29;20887;-87
2022/04/23 09:33:19;;;;;;;929.40;82.07;;;13.60;99.90;;;;;;4916641;29;20400;-84
2022/04/23 09:35:56;;;;;;;598.40;72.63;;;13.80;99.90;;;;;;4916536;29;20943;-86
2022/04/23 09:38:25;;;;;;;315.92;44.67;;;13.70;99.90;;;;;;4916036;29;20502;-85
2022/04/23 09:40:58;;;;;;;309.33;45.67;;;13.50;99.90;;;;;;4916176;29;20431;-86
2022/04/23 09:43:29;;;;;;;380.23;80.00;;;13.50;99.90;;;;;;4912135;29;20404;-85
2022/04/23 09:46:01;;;;;;;130.90;14.32;;;13.40;99.90;;;;;;4936262;29;20798;-85
2022/04/23 09:48:39;;;;;;;148.75;22.10;;;13.40;99.90;;;;;;4934626;29;20410;-84
2022/04/23 09:51:28;;;;;;;372.45;38.92;;;13.40;99.90;;;;;;4934721;29;20397;-86
2022/04/23 09:53:56;;;;;;;813.63;126.82;;;13.30;99.90;;;;;;4921413;29;20397;-86
2022/04/23 09:56:26;;;;;;;647.83;59.40;;;13.50;99.90;;;;;;4896889;29;20426;-85
2022/04/23 09:58:54;;;;;;;571.42;36.08;;;13.60;99.90;;;;;;4916924;29;20822;-86
2022/04/23 10:01:24;;;;;;;710.67;98.63;;;13.70;99.90;;;;;;4915752;29;21228;-85
2022/04/23 10:03:55;;;;;;;544.83;73.07;;;13.60;99.90;;;;;;4915928;29;20898;-85
2022/04/23 10:06:23;;;;;;;37.83;6.88;;;13.50;99.90;;;;;;4915779;29;21070;-85
2022/04/23 10:08:55;;;;;;;437.87;41.83;;;13.40;99.90;;;;;;4917173;29;20463;-85
2022/04/23 10:11:30;;;;;;;609.85;88.70;;;13.30;99.90;;;;;;4915910;29;20486;-84
2022/04/23 10:14:10;;;;;;;319.52;66.63;;;13.40;99.90;;;;;;4915518;29;20887;-85
2022/04/23 10:16:39;;;;;;;310.97;42.73;;;13.30;99.90;;;;;;4915943;29;20486;-88
2022/04/23 10:19:09;;;;;;;875.75;96.72;;;13.40;99.90;;;;;;4901114;29;20410;-86
2022/04/23 10:22:12;;;;;;;169.43;20.97;;;13.40;99.90;;;;;;4917034;29;20675;-86
2022/04/23 10:24:53;;;;;;;1019.28;120.07;;;13.50;99.90;;;;;;4907526;29;20404;-85
2022/04/23 10:27:25;;;;;;;609.58;74.10;;;13.40;99.90;;;;;;4915330;29;20407;-86
2022/04/23 10:30:02;;;;;;;1074.10;116.50;;;13.40;99.90;;;;;;4916572;29;20411;-86
2022/04/23 10:32:40;;;;;;;689.22;61.22;;;13.40;99.90;;;;;;4914904;29;20414;-87
2022/04/23 10:35:18;;;;;;;230.40;24.98;;;13.30;99.90;;;;;;4907298;29;20492;-87
2022/04/23 10:37:50;;;;;;;1085.93;116.80;;;13.30;99.90;;;;;;4925687;29;20395;-86
2022/04/23 10:40:21;;;;;;;794.28;78.75;;;13.40;99.90;;;;;;4930681;29;20449;-84
2022/04/23 10:43:12;;;;;;;501.27;63.45;;;13.50;99.90;;;;;;4919505;29;20392;-86
2022/04/23 10:45:40;;;;;;;491.13;48.33;;;13.40;99.90;;;;;;4915430;29;20400;-87
2022/04/23 10:48:23;;;;;;;688.83;62.85;;;13.40;99.90;;;;;;4919530;29;20402;-86
2022/04/23 10:51:16;;;;;;;914.85;85.88;;;13.30;99.90;;;;;;4926808;29;20836;-86
2022/04/23 10:53:46;;;;;;;509.58;71.43;;;13.30;99.90;;;;;;4916375;29;20918;-86
2022/04/23 10:56:16;;;;;;;373.87;33.87;;;13.30;99.90;;;;;;4933626;29;20429;-86
2022/04/23 10:58:44;;;;;;;273.60;30.20;;;13.30;99.90;;;;;;4918191;29;20406;-86
2022/04/23 11:01:26;;;;;;;140.40;17.47;;;13.30;99.90;;;;;;4917924;29;20401;-87
2022/04/23 11:03:57;;;;;;;550.53;59.70;;;13.30;99.90;;;;;;4935263;29;20429;-85
2022/04/23 11:12:28;;;;;;;283.77;38.33;;;13.20;99.90;;;;;;4923469;29;20410;-86
2022/04/23 11:14:57;;;;;;;636.17;78.50;;;13.10;99.90;;;;;;4916595;29;20393;-87
2022/04/23 11:17:44;;;;;;;321.65;44.70;;;13.20;99.90;;;;;;4919936;29;20406;-86
2022/04/23 11:20:14;;;;;;;318.85;52.70;;;13.20;99.90;;;;;;4945041;29;20420;-86
2022/04/23 11:22:41;;;;;;;486.92;64.40;;;13.20;99.90;;;;;;4942054;29;20490;-85
2022/04/23 11:25:09;;;;;;;370.07;47.37;;;13.30;99.90;;;;;;4925254;29;20392;-85
2022/04/23 11:27:37;;;;;;;288.35;54.97;;;13.30;99.90;;;;;;4922981;29;20496;-85
2022/04/23 11:30:06;;;;;;;8.95;4.53;;;13.30;99.90;;;;;;4941958;29;20443;-86
2022/04/23 11:32:36;;;;;;;542.38;77.53;;;13.40;99.90;;;;;;4927869;29;20856;-87
2022/04/23 11:35:06;;;;;;;543.10;50.97;;;13.30;99.90;;;;;;4913061;29;20408;-86
2022/04/23 11:37:35;;;;;;;230.70;26.37;;;13.40;99.90;;;;;;4922822;29;20480;-85
2022/04/23 11:40:28;;;;;;;771.63;89.75;;;13.40;99.90;;;;;;4914640;29;20411;-84
2022/04/23 11:42:56;;;;;;;873.10;102.13;;;13.80;99.90;;;;;;4917266;29;20410;-86
2022/04/23 11:45:24;;;;;;;489.17;58.15;;;13.90;99.90;;;;;;4933232;29;20404;-87
2022/04/23 11:47:52;;;;;;;468.70;41.20;;;13.80;99.90;;;;;;4934463;29;20408;-86
2022/04/23 11:50:24;;;;;;;373.73;50.85;;;13.80;99.90;;;;;;4916610;29;20405;-87
2022/04/23 11:53:00;;;;;;;835.55;94.07;;;13.70;99.90;;;;;;4928631;29;20416;-86
2022/04/23 11:55:30;;;;;;;556.90;72.07;;;13.70;99.90;;;;;;4944715;29;20402;-86
2022/04/23 11:58:00;;;;;;;446.10;55.45;;;13.70;99.90;;;;;;4946814;29;20518;-88
2022/04/23 12:00:32;;;;;;;478.13;61.83;;;13.70;99.90;;;;;;4939381;29;20502;-86
2022/04/23 12:03:01;;;;;;;784.88;93.00;;;13.70;99.90;;;;;;4927845;29;20456;-87
2022/04/23 12:05:32;;;;;;;576.03;75.00;;;13.60;99.90;;;;;;4941381;29;20405;-87
2022/04/23 12:08:01;;;;;;;382.08;42.38;;;13.60;99.90;;;;;;4915172;29;20481;-87
2022/04/23 12:10:32;;;;;;;444.67;48.38;;;13.60;99.90;;;;;;4934441;29;20404;-87
2022/04/23 12:13:06;;;;;;;389.35;57.33;;;13.50;99.90;;;;;;4938210;29;20813;-87
2022/04/23 12:15:44;;;;;;;468.25;92.40;;;13.50;99.90;;;;;;4931469;29;20392;-85
2022/04/23 12:18:19;;;;;;;118.15;22.23;;;13.50;99.90;;;;;;4939937;29;20488;-87
2022/04/23 12:20:47;;;;;;;58.85;10.30;;;13.60;99.90;;;;;;4937993;29;20488;-86
2022/04/23 12:23:14;;;;;;;257.98;41.88;;;13.60;99.90;;;;;;4937433;29;20397;-88
2022/04/23 12:25:43;;;;;;;860.85;139.27;;;13.70;99.90;;;;;;4937918;29;20398;-87
2022/04/23 12:42:46;;;;;;;468.70;50.20;;;13.70;99.90;;;;;;4920255;29;20408;-89
2022/04/23 12:45:21;;;;;;;800.30;86.45;;;13.70;99.90;;;;;;4920591;29;20401;-87
2022/04/23 12:47:49;;;;;;;200.88;19.80;;;13.80;99.90;;;;;;4920652;29;20402;-87
2022/04/23 12:50:26;;;;;;;926.77;144.63;;;13.80;99.90;;;;;;4920469;29;20420;-87
2022/04/23 12:52:55;;;;;;;868.65;83.45;;;13.80;99.90;;;;;;4920239;29;20396;-87
2022/04/23 12:55:32;;;;;;;758.75;84.43;;;13.90;99.90;;;;;;4910744;29;20448;-87
2022/04/23 12:58:03;;;;;;;280.67;35.08;;;13.90;99.90;;;;;;4898369;29;20857;-87
2022/04/23 13:00:35;;;;;;;245.30;23.83;;;13.90;99.90;;;;;;4926316;29;20416;-86
2022/04/23 13:03:31;;;;;;;503.83;45.53;;;13.80;99.90;;;;;;4918204;29;20410;-86
2022/04/23 13:06:03;;;;;;;4.35;3.70;;;13.80;99.90;;;;;;4917058;29;20408;-87
2022/04/23 13:11:27;;;;;;;434.73;51.55;;;13.80;99.90;;;;;;4918150;29;20886;-86
2022/04/23 13:14:04;;;;;;;484.67;56.88;;;13.80;99.90;;;;;;4916892;29;20492;-88
2022/04/23 13:16:34;;;;;;;350.77;45.13;;;13.80;99.90;;;;;;4916816;29;20887;-87
2022/04/23 13:19:04;;;;;;;259.50;48.90;;;13.70;99.90;;;;;;4918627;29;20817;-87
2022/04/23 13:21:33;;;;;;;314.05;30.38;;;13.70;99.90;;;;;;4918297;29;20406;-88